createdAt,value
2023-02-01T00:00:54.406Z,97298.34
2023-02-01T00:02:59.020Z,97290.47
2023-02-01T00:05:03.795Z,97294.03
2023-02-01T00:07:08.588Z,97295.34
2023-02-01T00:09:13.210Z,97296.50
2023-02-01T00:11:35.529Z,97292.47
2023-02-01T00:13:42.533Z,97284.03
2023-02-01T00:15:47.229Z,97280.38
2023-02-01T00:17:51.895Z,97294.78
2023-02-01T00:19:56.552Z,97283.72
2023-02-01T00:22:01.400Z,97281.66
2023-02-01T00:24:07.282Z,97274.56
2023-02-01T00:26:17.959Z,97274.56
2023-02-01T00:28:25.243Z,97271.16
2023-02-01T00:30:30.119Z,97251.44
2023-02-01T00:32:34.929Z,97251.34
2023-02-01T00:34:39.710Z,97245.31
2023-02-01T00:36:44.768Z,97243.94
2023-02-01T00:38:49.514Z,97253.66
2023-02-01T00:40:54.170Z,97245.22
2023-02-01T00:42:58.927Z,97243.63
2023-02-01T00:45:06.445Z,97240.78
2023-02-01T00:47:11.151Z,97247.69
2023-02-01T00:49:16.111Z,97245.06
2023-02-01T00:51:23.417Z,97241.94
2023-02-01T00:53:28.029Z,97250.16
2023-02-01T00:55:32.805Z,97247.78
2023-02-01T00:57:37.468Z,97246.41
2023-02-01T00:59:42.165Z,97240.91
2023-02-01T01:01:49.430Z,97225.72
2023-02-01T01:03:56.361Z,97238.59
2023-02-01T01:06:01.413Z,97234.94
2023-02-01T01:08:06.309Z,97244.09
2023-02-01T01:10:11.734Z,97249.09
2023-02-01T01:12:16.463Z,97249.69
2023-02-01T01:14:21.113Z,97245.22
2023-02-01T01:16:27.722Z,97250.22
2023-02-01T01:18:37.153Z,97251.72
2023-02-01T01:20:44.146Z,97230.97
2023-02-01T01:22:48.935Z,97245.16
2023-02-01T01:24:53.564Z,97234.84
2023-02-01T01:26:58.303Z,97235.69
2023-02-01T01:29:03.806Z,97246.97
2023-02-01T01:31:12.100Z,97246.41
2023-02-01T01:33:17.302Z,97244.03
2023-02-01T01:35:24.576Z,97249.03
2023-02-01T01:37:29.310Z,97232.22
2023-02-01T01:39:34.013Z,97232.81
2023-02-01T01:41:38.712Z,97226.78
2023-02-01T01:43:56.363Z,97233.59
2023-02-01T01:46:02.785Z,97228.03
2023-02-01T01:48:12.575Z,97215.94
2023-02-01T01:50:21.124Z,97219.97
2023-02-01T01:52:28.773Z,97222.13
2023-02-01T01:54:36.697Z,97227.69
2023-02-01T01:56:42.088Z,97224.03
2023-02-01T01:58:47.164Z,97223.72
2023-02-01T02:00:52.067Z,97212.69
2023-02-01T02:03:10.936Z,97216.03
2023-02-01T02:05:16.809Z,97218.41
2023-02-01T02:07:26.979Z,97222.84
2023-02-01T02:09:34.390Z,97220.22
2023-02-01T02:11:39.372Z,97212.59
2023-02-01T02:13:47.861Z,97205.97
2023-02-01T02:16:02.390Z,97216.41
2023-02-01T02:18:14.932Z,97209.28
2023-02-01T02:20:40.465Z,97211.56
2023-02-01T02:23:03.942Z,97206.88
2023-02-01T02:25:49.140Z,97191.38
2023-02-01T02:28:03.041Z,97191.44
2023-02-01T02:30:57.110Z,97192.25
2023-02-01T02:33:35.612Z,97194.78
2023-02-01T02:35:50.841Z,97189.53
2023-02-01T02:38:05.740Z,97190.66
2023-02-01T02:40:15.766Z,97194.94
2023-02-01T02:42:42.413Z,97189.53
2023-02-01T02:45:05.004Z,97182.69
2023-02-01T02:47:28.807Z,97184.78
2023-02-01T02:49:40.728Z,97165.06
2023-02-01T02:52:07.092Z,97157.66
2023-02-01T02:54:29.080Z,97174.19
2023-02-01T02:56:46.407Z,97170.00
2023-02-01T02:59:04.879Z,97171.81
2023-02-01T03:01:22.950Z,97176.81
2023-02-01T03:03:40.376Z,97173.41
2023-02-01T03:05:48.689Z,97172.06
2023-02-01T03:08:05.403Z,97165.53
2023-02-01T03:10:17.089Z,97171.91
2023-02-01T03:12:35.888Z,97172.69
2023-02-01T03:14:44.920Z,97164.03
2023-02-01T03:16:55.469Z,97170.06
2023-02-01T03:19:04.943Z,97164.81
2023-02-01T03:21:14.325Z,97159.81
2023-02-01T03:23:26.426Z,97165.28
2023-02-01T03:25:35.269Z,97165.06
2023-02-01T03:27:44.457Z,97164.50
2023-02-01T03:29:54.688Z,97165.28
2023-02-01T03:31:59.898Z,97154.78
2023-02-01T03:34:04.939Z,97153.19
2023-02-01T03:36:23.826Z,97145.81
2023-02-01T03:38:36.417Z,97156.56
2023-02-01T03:40:45.514Z,97154.75
2023-02-01T03:42:54.696Z,97161.31
2023-02-01T03:45:08.135Z,97159.50
2023-02-01T03:47:17.523Z,97153.44
2023-02-01T03:49:27.374Z,97154.50
2023-02-01T03:51:34.292Z,97154.75
2023-02-01T03:53:46.992Z,97145.50
2023-02-01T03:55:53.947Z,97150.28
2023-02-01T03:58:05.258Z,97158.69
2023-02-01T04:00:12.815Z,97160.13
2023-02-01T04:02:20.650Z,97155.97
2023-02-01T04:04:25.484Z,97153.91
2023-02-01T04:06:32.600Z,97157.66
2023-02-01T04:08:43.239Z,97156.84
2023-02-01T04:10:47.870Z,97161.28
2023-02-01T04:12:52.514Z,97149.94
2023-02-01T04:14:57.138Z,97142.78
2023-02-01T04:17:01.842Z,97138.03
2023-02-01T04:19:06.637Z,97150.56
2023-02-01T04:21:11.458Z,97159.03
2023-02-01T04:23:16.795Z,97153.44
2023-02-01T04:25:24.325Z,97145.03
2023-02-01T04:27:30.272Z,97153.94
2023-02-01T04:29:34.977Z,97160.78
2023-02-01T04:31:39.872Z,97150.28
2023-02-01T04:33:44.723Z,97151.31
2023-02-01T04:35:49.442Z,97145.81
2023-02-01T04:37:54.128Z,97141.63
2023-02-01T04:39:58.836Z,97139.22
2023-02-01T04:42:06.285Z,97137.41
2023-02-01T04:44:17.111Z,97135.25
2023-02-01T04:46:22.365Z,97133.41
2023-02-01T04:48:27.048Z,97142.88
2023-02-01T04:50:31.764Z,97147.31
2023-02-01T04:52:36.478Z,97134.78
2023-02-01T04:54:41.667Z,97139.22
2023-02-01T04:56:46.463Z,97140.03
2023-02-01T04:58:53.855Z,97135.31
2023-02-01T05:00:58.513Z,97127.78
2023-02-01T05:03:03.527Z,97128.00
2023-02-01T05:05:09.200Z,97137.16
2023-02-01T05:07:13.889Z,97125.78
2023-02-01T05:09:18.587Z,97114.50
2023-02-01T05:11:35.796Z,97109.50
2023-02-01T05:13:52.434Z,97112.13
2023-02-01T05:15:59.783Z,97115.53
2023-02-01T05:18:04.588Z,97120.78
2023-02-01T05:20:10.982Z,97129.69
2023-02-01T05:22:15.776Z,97136.03
2023-02-01T05:24:23.233Z,97136.13
2023-02-01T05:26:28.614Z,97131.97
2023-02-01T05:28:33.353Z,97141.75
2023-02-01T05:30:41.180Z,97142.84
2023-02-01T05:32:49.692Z,97145.00
2023-02-01T05:34:54.498Z,97136.94
2023-02-01T05:36:59.243Z,97138.34
2023-02-01T05:39:04.024Z,97131.81
2023-02-01T05:41:08.782Z,97111.13
2023-02-01T05:43:13.394Z,97099.03
2023-02-01T05:45:18.312Z,97094.56
2023-02-01T05:47:23.017Z,97085.38
2023-02-01T05:49:30.309Z,97081.41
2023-02-01T05:51:35.079Z,97077.72
2023-02-01T05:53:39.826Z,97067.78
2023-02-01T05:55:45.792Z,97073.53
2023-02-01T05:57:50.526Z,97079.00
2023-02-01T05:59:55.229Z,97087.19
2023-02-01T06:02:00.080Z,97081.41
2023-02-01T06:04:05.006Z,97078.53
2023-02-01T06:06:12.317Z,97076.69
2023-02-01T06:08:18.315Z,97072.78
2023-02-01T06:10:24.259Z,97074.66
2023-02-01T06:12:29.227Z,97072.03
2023-02-01T06:14:33.955Z,97064.16
2023-02-01T06:16:38.628Z,97066.00
2023-02-01T06:18:43.319Z,97075.19
2023-02-01T06:20:47.947Z,97069.16
2023-02-01T06:22:55.314Z,97073.38
2023-02-01T06:24:59.975Z,97074.75
2023-02-01T06:27:04.744Z,97069.25
2023-02-01T06:29:09.480Z,97070.81
2023-02-01T06:31:14.481Z,97067.16
2023-02-01T06:33:19.481Z,97074.00
2023-02-01T06:35:24.546Z,97076.31
2023-02-01T06:37:33.111Z,97065.00
2023-02-01T06:39:40.691Z,97081.25
2023-02-01T06:41:45.685Z,97069.16
2023-02-01T06:43:50.417Z,97067.53
2023-02-01T06:45:55.850Z,97063.03
2023-02-01T06:48:02.326Z,97062.69
2023-02-01T06:50:08.278Z,97066.84
2023-02-01T06:52:13.533Z,97081.03
2023-02-01T06:54:18.422Z,97057.16
2023-02-01T06:56:25.827Z,97066.63
2023-02-01T06:58:32.810Z,97067.16
2023-02-01T07:00:37.585Z,97076.63
2023-02-01T07:02:42.396Z,97074.00
2023-02-01T07:04:47.137Z,97066.38
2023-02-01T07:06:52.025Z,97062.69
2023-02-01T07:08:57.399Z,97069.28
2023-02-01T07:11:06.196Z,97067.44
2023-02-01T07:13:13.726Z,97070.09
2023-02-01T07:15:18.687Z,97088.47
2023-02-01T07:17:23.572Z,97077.50
2023-02-01T07:19:28.302Z,97080.94
2023-02-01T07:21:33.006Z,97078.63
2023-02-01T07:23:37.973Z,97081.81
2023-02-01T07:25:42.682Z,97086.03
2023-02-01T07:27:47.601Z,97081.56
2023-02-01T07:29:56.669Z,97087.63
2023-02-01T07:32:01.539Z,97081.88
2023-02-01T07:34:06.192Z,97095.53
2023-02-01T07:36:15.102Z,97082.97
2023-02-01T07:38:20.645Z,97083.25
2023-02-01T07:40:29.623Z,97083.78
2023-02-01T07:42:34.507Z,97074.34
2023-02-01T07:44:39.866Z,97071.97
2023-02-01T07:46:47.572Z,97090.84
2023-02-01T07:48:52.282Z,97076.41
2023-02-01T07:51:03.931Z,97071.16
2023-02-01T07:53:08.624Z,97075.13
2023-02-01T07:55:13.623Z,97071.22
2023-02-01T07:57:18.258Z,97088.59
2023-02-01T07:59:23.172Z,97086.75
2023-02-01T08:01:27.144Z,97078.84
2023-02-01T08:03:35.004Z,97088.34
2023-02-01T08:05:40.496Z,97108.59
2023-02-01T08:07:45.385Z,97108.13
2023-02-01T08:09:50.023Z,97111.28
2023-02-01T08:11:54.718Z,97113.41
2023-02-01T08:14:02.610Z,97110.78
2023-02-01T08:16:09.922Z,97095.81
2023-02-01T08:18:17.303Z,97102.91
2023-02-01T08:20:27.141Z,97115.75
2023-02-01T08:22:35.774Z,97100.75
2023-02-01T08:24:42.813Z,97111.03
2023-02-01T08:26:47.720Z,97101.00
2023-02-01T08:28:54.496Z,97104.13
2023-02-01T08:30:59.305Z,97098.63
2023-02-01T08:33:04.210Z,97085.00
2023-02-01T08:35:09.491Z,97097.09
2023-02-01T08:37:16.774Z,97095.25
2023-02-01T08:39:21.405Z,97096.59
2023-02-01T08:41:31.819Z,97105.53
2023-02-01T08:43:36.574Z,97095.81
2023-02-01T08:45:41.629Z,97102.44
2023-02-01T08:47:47.909Z,97109.31
2023-02-01T08:49:52.772Z,97101.44
2023-02-01T08:52:01.001Z,97114.31
2023-02-01T08:54:11.154Z,97122.69
2023-02-01T08:56:17.481Z,97102.47
2023-02-01T08:58:22.862Z,97102.22
2023-02-01T09:00:27.711Z,97117.25
2023-02-01T09:02:32.471Z,97111.25
2023-02-01T09:04:37.091Z,97113.88
2023-02-01T09:06:44.294Z,97117.56
2023-02-01T09:08:49.444Z,97106.00
2023-02-01T09:10:56.976Z,97110.19
2023-02-01T09:13:01.620Z,97105.53
2023-02-01T09:15:08.237Z,97096.88
2023-02-01T09:17:14.504Z,97113.13
2023-02-01T09:19:26.287Z,97116.56
2023-02-01T09:21:31.877Z,97121.28
2023-02-01T09:23:36.949Z,97121.28
2023-02-01T09:25:42.009Z,97126.53
2023-02-01T09:27:49.348Z,97118.41
2023-02-01T09:29:54.719Z,97160.75
2023-02-01T09:32:03.926Z,97129.19
2023-02-01T09:34:10.156Z,97144.19
2023-02-01T09:36:14.851Z,97144.44
2023-02-01T09:38:19.491Z,97137.91
2023-02-01T09:40:25.977Z,97140.03
2023-02-01T09:42:56.810Z,97126.31
2023-02-01T09:45:14.024Z,97125.03
2023-02-01T09:47:21.321Z,97138.78
2023-02-01T09:49:32.351Z,97135.91
2023-02-01T09:51:41.399Z,97149.56
2023-02-01T09:53:51.847Z,97134.34
2023-02-01T09:56:00.161Z,97148.34
2023-02-01T09:58:12.013Z,97157.56
2023-02-01T10:00:25.103Z,97143.94
2023-02-01T10:02:31.846Z,97148.69
2023-02-01T10:04:37.185Z,97155.25
2023-02-01T10:06:55.793Z,97153.97
2023-02-01T10:09:17.637Z,97154.78
2023-02-01T10:11:31.763Z,97154.53
2023-02-01T10:13:52.258Z,97148.97
2023-02-01T10:16:14.134Z,97154.22
2023-02-01T10:18:36.007Z,97147.38
2023-02-01T10:20:52.331Z,97148.72
2023-02-01T10:23:27.345Z,97144.81
2023-02-01T10:25:40.637Z,97151.66
2023-02-01T10:27:45.727Z,97145.91
2023-02-01T10:29:57.880Z,97143.22
2023-02-01T10:32:02.718Z,97141.66
2023-02-01T10:34:19.664Z,97155.81
2023-02-01T10:36:30.438Z,97144.03
2023-02-01T10:38:37.219Z,97143.53
2023-02-01T10:40:42.188Z,97154.28
2023-02-01T10:42:48.062Z,97149.75
2023-02-01T10:44:57.388Z,97145.25
2023-02-01T10:47:02.203Z,97146.59
2023-02-01T10:49:09.056Z,97148.97
2023-02-01T10:51:19.736Z,97152.38
2023-02-01T10:53:30.301Z,97151.66
2023-02-01T10:55:41.875Z,97146.66
2023-02-01T10:57:59.852Z,97132.16
2023-02-01T11:00:23.682Z,97135.81
2023-02-01T11:02:33.059Z,97134.28
2023-02-01T11:04:39.119Z,97154.31
2023-02-01T11:06:45.432Z,97148.81
2023-02-01T11:08:52.989Z,97148.81
2023-02-01T11:11:03.283Z,97148.03
2023-02-01T11:13:08.877Z,97155.91
2023-02-01T11:15:31.259Z,97149.03
2023-02-01T11:17:39.045Z,97157.19
2023-02-01T11:19:48.239Z,97154.31
2023-02-01T11:21:55.452Z,97158.03
2023-02-01T11:24:06.993Z,97156.19
2023-02-01T11:26:15.680Z,97144.63
2023-02-01T11:28:21.321Z,97157.03
2023-02-01T11:30:36.450Z,97150.97
2023-02-01T11:32:43.996Z,97134.94
2023-02-01T11:34:53.195Z,97116.53
2023-02-01T11:37:04.360Z,97134.94
2023-02-01T11:39:25.108Z,97148.59
2023-02-01T11:41:33.395Z,97149.13
2023-02-01T11:43:38.262Z,97132.31
2023-02-01T11:45:57.748Z,97134.94
2023-02-01T11:48:02.705Z,97137.31
2023-02-01T11:50:18.428Z,97115.25
2023-02-01T11:52:38.317Z,97117.06
2023-02-01T11:55:00.979Z,97105.84
2023-02-01T11:57:21.309Z,97123.69
2023-02-01T11:59:56.414Z,97116.84
2023-02-01T12:02:32.274Z,97116.84
2023-02-01T12:05:10.749Z,97126.81
2023-02-01T12:07:21.765Z,97111.28
2023-02-01T12:09:53.158Z,97103.13
2023-02-01T12:12:06.927Z,97116.59
2023-02-01T12:14:29.825Z,97101.88
2023-02-01T12:16:46.250Z,97103.97
2023-02-01T12:19:19.440Z,97096.09
2023-02-01T12:21:41.556Z,97102.19
2023-02-01T12:24:11.720Z,97105.09
2023-02-01T12:26:42.351Z,97107.72
2023-02-01T12:29:09.635Z,97100.63
2023-02-01T12:31:36.174Z,97085.31
2023-02-01T12:33:55.982Z,97093.47
2023-02-01T12:36:16.605Z,97079.78
2023-02-01T12:38:40.376Z,97085.06
2023-02-01T12:41:00.248Z,97075.06
2023-02-01T12:43:11.585Z,97080.88
2023-02-01T12:45:25.003Z,97086.91
2023-02-01T12:47:36.412Z,97086.66
2023-02-01T12:49:50.411Z,97085.63
2023-02-01T12:52:04.255Z,97087.22
2023-02-01T12:54:19.177Z,97094.06
2023-02-01T12:56:30.512Z,97095.38
2023-02-01T12:58:42.844Z,97092.75
2023-02-01T13:00:52.942Z,97081.97
2023-02-01T13:03:04.603Z,97089.59
2023-02-01T13:05:20.957Z,97096.41
2023-02-01T13:07:34.085Z,97100.88
2023-02-01T13:09:45.828Z,97091.94
2023-02-01T13:11:54.621Z,97085.63
2023-02-01T13:14:07.013Z,97087.22
2023-02-01T13:16:19.672Z,97083.25
2023-02-01T13:18:28.288Z,97087.22
2023-02-01T13:20:36.170Z,97084.84
2023-02-01T13:22:47.131Z,97092.50
2023-02-01T13:24:56.315Z,97090.63
2023-02-01T13:27:01.213Z,97081.44
2023-02-01T13:29:08.993Z,97083.81
2023-02-01T13:31:40.591Z,97073.28
2023-02-01T13:34:03.577Z,97076.97
2023-02-01T13:36:36.878Z,97071.19
2023-02-01T13:39:22.835Z,97050.38
2023-02-01T13:41:32.089Z,97054.56
2023-02-01T13:43:39.949Z,97075.63
2023-02-01T13:45:51.708Z,97073.75
2023-02-01T13:47:59.163Z,97074.31
2023-02-01T13:50:08.212Z,97065.09
2023-02-01T13:52:28.985Z,97066.69
2023-02-01T13:54:39.362Z,97070.09
2023-02-01T13:56:46.125Z,97067.47
2023-02-01T13:58:52.532Z,97078.00
2023-02-01T14:01:34.950Z,97081.13
2023-02-01T14:03:48.474Z,97066.13
2023-02-01T14:06:05.990Z,97065.34
2023-02-01T14:08:16.547Z,97079.03
2023-02-01T14:10:55.227Z,97075.88
2023-02-01T14:13:08.158Z,97071.94
2023-02-01T14:15:28.724Z,97065.88
2023-02-01T14:17:36.833Z,97068.81
2023-02-01T14:19:41.890Z,97068.53
2023-02-01T14:21:55.081Z,97068.81
2023-02-01T14:24:03.207Z,97074.59
2023-02-01T14:26:17.578Z,97069.06
2023-02-01T14:28:30.160Z,97062.22
2023-02-01T14:30:35.973Z,97058.53
2023-02-01T14:32:47.579Z,97076.19
2023-02-01T14:34:57.973Z,97043.78
2023-02-01T14:37:04.842Z,97066.16
2023-02-01T14:39:24.474Z,97055.59
2023-02-01T14:41:35.988Z,97068.75
2023-02-01T14:44:29.132Z,97075.06
2023-02-01T14:47:03.667Z,97076.66
2023-02-01T14:49:10.261Z,97070.34
2023-02-01T14:51:19.204Z,97067.97
2023-02-01T14:53:29.691Z,97068.75
2023-02-01T14:55:39.475Z,97069.28
2023-02-01T14:57:47.122Z,97062.16
2023-02-01T15:00:03.708Z,97070.84
2023-02-01T15:02:24.931Z,97062.97
2023-02-01T15:04:30.990Z,97073.50
2023-02-01T15:06:42.109Z,97064.56
2023-02-01T15:08:46.948Z,97059.31
2023-02-01T15:10:54.762Z,97070.38
2023-02-01T15:12:59.624Z,97069.59
2023-02-01T15:15:17.510Z,97069.53
2023-02-01T15:17:25.089Z,97077.94
2023-02-01T15:19:31.762Z,97062.97
2023-02-01T15:21:46.937Z,97064.25
2023-02-01T15:23:52.193Z,97079.53
2023-02-01T15:25:57.286Z,97065.84
2023-02-01T15:28:02.187Z,97073.50
2023-02-01T15:30:21.483Z,97062.16
2023-02-01T15:32:33.589Z,97059.00
2023-02-01T15:34:52.453Z,97075.81
2023-02-01T15:37:08.636Z,97077.13
2023-02-01T15:39:21.412Z,97074.75
2023-02-01T15:41:33.805Z,97079.19
2023-02-01T15:43:41.830Z,97097.94
2023-02-01T15:45:49.747Z,97080.31
2023-02-01T15:47:56.621Z,97079.00
2023-02-01T15:50:04.255Z,97069.00
2023-02-01T15:52:22.689Z,97087.63
2023-02-01T15:54:32.166Z,97098.16
2023-02-01T15:56:39.488Z,97092.91
2023-02-01T15:58:48.732Z,97079.53
2023-02-01T16:00:58.767Z,97086.34
2023-02-01T16:03:05.509Z,97085.84
2023-02-01T16:05:33.335Z,97085.56
2023-02-01T16:07:38.228Z,97085.06
2023-02-01T16:09:52.854Z,97083.22
2023-02-01T16:12:01.119Z,97095.59
2023-02-01T16:14:05.894Z,97094.53
2023-02-01T16:16:15.121Z,97094.53
2023-02-01T16:18:20.849Z,97095.59
2023-02-01T16:20:25.710Z,97090.31
2023-02-01T16:22:30.373Z,97090.06
2023-02-01T16:24:35.311Z,97084.53
2023-02-01T16:26:40.029Z,97088.78
2023-02-01T16:28:44.834Z,97099.03
2023-02-01T16:30:52.341Z,97094.56
2023-02-01T16:33:03.622Z,97093.47
2023-02-01T16:35:09.499Z,97093.47
2023-02-01T16:37:16.728Z,97104.81
2023-02-01T16:39:21.776Z,97098.25
2023-02-01T16:41:29.041Z,97109.31
2023-02-01T16:43:34.010Z,97105.38
2023-02-01T16:45:41.402Z,97108.03
2023-02-01T16:47:53.230Z,97096.66
2023-02-01T16:50:17.113Z,97106.63
2023-02-01T16:52:28.962Z,97109.50
2023-02-01T16:54:33.678Z,97106.06
2023-02-01T16:56:40.513Z,97103.69
2023-02-01T16:58:45.532Z,97106.53
2023-02-01T17:00:51.960Z,97105.47
2023-02-01T17:02:57.067Z,97112.28
2023-02-01T17:05:04.404Z,97116.97
2023-02-01T17:07:10.509Z,97116.38
2023-02-01T17:09:15.576Z,97120.00
2023-02-01T17:11:20.325Z,97118.41
2023-02-01T17:13:25.092Z,97121.06
2023-02-01T17:15:35.568Z,97112.84
2023-02-01T17:17:43.699Z,97116.78
2023-02-01T17:19:52.963Z,97118.09
2023-02-01T17:22:00.345Z,97109.34
2023-02-01T17:24:05.115Z,97113.56
2023-02-01T17:26:12.666Z,97120.13
2023-02-01T17:28:17.707Z,97119.03
2023-02-01T17:30:22.426Z,97127.66
2023-02-01T17:32:29.188Z,97120.78
2023-02-01T17:34:34.172Z,97121.03
2023-02-01T17:36:40.120Z,97116.03
2023-02-01T17:38:59.891Z,97116.53
2023-02-01T17:41:09.722Z,97129.94
2023-02-01T17:43:17.494Z,97127.56
2023-02-01T17:45:37.580Z,97134.16
2023-02-01T17:47:42.355Z,97129.69
2023-02-01T17:49:49.809Z,97137.03
2023-02-01T17:51:54.904Z,97128.59
2023-02-01T17:54:02.574Z,97121.22
2023-02-01T17:56:07.740Z,97125.69
2023-02-01T17:58:13.804Z,97125.69
2023-02-01T18:00:20.001Z,97127.50
2023-02-01T18:02:26.149Z,97131.22
2023-02-01T18:04:31.060Z,97130.19
2023-02-01T18:06:38.743Z,97116.75
2023-02-01T18:08:43.850Z,97118.59
2023-02-01T18:10:52.795Z,97113.28
2023-02-01T18:12:58.294Z,97107.22
2023-02-01T18:15:03.297Z,97107.47
2023-02-01T18:17:08.236Z,97110.34
2023-02-01T18:19:13.012Z,97098.50
2023-02-01T18:21:18.350Z,97096.94
2023-02-01T18:23:25.972Z,97082.44
2023-02-01T18:25:37.170Z,97088.47
2023-02-01T18:27:44.675Z,97093.44
2023-02-01T18:29:49.363Z,97095.31
2023-02-01T18:31:55.129Z,97088.47
2023-02-01T18:34:01.087Z,97089.28
2023-02-01T18:36:05.836Z,97082.72
2023-02-01T18:38:11.168Z,97092.19
2023-02-01T18:40:21.014Z,97084.03
2023-02-01T18:42:25.691Z,97090.59
2023-02-01T18:44:33.149Z,97092.19
2023-02-01T18:46:37.873Z,97073.06
2023-02-01T18:48:43.969Z,97088.03
2023-02-01T18:50:51.994Z,97091.69
2023-02-01T18:52:57.606Z,97080.94
2023-02-01T18:55:02.711Z,97073.38
2023-02-01T18:57:07.478Z,97082.56
2023-02-01T18:59:12.230Z,97071.34
2023-02-01T19:01:21.760Z,97091.06
2023-02-01T19:03:27.200Z,97094.28
2023-02-01T19:05:33.925Z,97083.25
2023-02-01T19:07:39.563Z,97092.22
2023-02-01T19:09:44.350Z,97082.81
2023-02-01T19:11:49.046Z,97093.13
2023-02-01T19:13:55.487Z,97091.03
2023-02-01T19:16:00.710Z,97098.91
2023-02-01T19:18:08.995Z,97096.78
2023-02-01T19:20:16.280Z,97098.91
2023-02-01T19:22:21.434Z,97102.84
2023-02-01T19:24:28.165Z,97104.19
2023-02-01T19:26:33.065Z,97103.16
2023-02-01T19:28:37.819Z,97102.34
2023-02-01T19:30:42.746Z,97096.81
2023-02-01T19:32:47.957Z,97098.41
2023-02-01T19:34:55.316Z,97100.50
2023-02-01T19:36:59.989Z,97093.41
2023-02-01T19:39:04.923Z,97091.88
2023-02-01T19:41:09.694Z,97087.13
2023-02-01T19:43:14.431Z,97087.38
2023-02-01T19:45:19.338Z,97092.38
2023-02-01T19:47:24.053Z,97085.28
2023-02-01T19:49:28.803Z,97081.59
2023-02-01T19:51:36.424Z,97089.75
2023-02-01T19:53:41.154Z,97069.22
2023-02-01T19:55:48.358Z,97087.31
2023-02-01T19:57:53.007Z,97083.34
2023-02-01T19:59:57.948Z,97091.22
2023-02-01T20:02:01.840Z,97087.81
2023-02-01T20:04:07.303Z,97082.56
2023-02-01T20:06:12.690Z,97083.59
2023-02-01T20:08:20.021Z,97090.94
2023-02-01T20:10:24.980Z,97095.16
2023-02-01T20:12:29.731Z,97094.09
2023-02-01T20:14:34.453Z,97098.84
2023-02-01T20:16:39.287Z,97096.22
2023-02-01T20:18:44.003Z,97092.53
2023-02-01T20:20:48.793Z,97114.34
2023-02-01T20:22:54.904Z,97093.84
2023-02-01T20:25:03.891Z,97105.47
2023-02-01T20:27:10.292Z,97091.81
2023-02-01T20:29:17.675Z,97086.31
2023-02-01T20:31:24.194Z,97094.50
2023-02-01T20:33:30.747Z,97087.13
2023-02-01T20:35:35.903Z,97090.84
2023-02-01T20:37:42.791Z,97078.72
2023-02-01T20:39:47.784Z,97064.78
2023-02-01T20:41:55.973Z,97066.84
2023-02-01T20:44:00.961Z,97083.13
2023-02-01T20:46:08.918Z,97063.63
2023-02-01T20:48:15.976Z,97072.28
2023-02-01T20:50:21.153Z,97078.88
2023-02-01T20:52:25.915Z,97074.13
2023-02-01T20:54:30.694Z,97081.78
2023-02-01T20:56:35.425Z,97082.81
2023-02-01T20:58:43.402Z,97104.84
2023-02-01T21:00:48.191Z,97080.09
2023-02-01T21:02:53.745Z,97107.91
2023-02-01T21:04:58.384Z,97087.13
2023-02-01T21:07:03.600Z,97092.66
2023-02-01T21:09:08.275Z,97077.38
2023-02-01T21:11:15.959Z,97081.28
2023-02-01T21:13:21.097Z,97090.78
2023-02-01T21:15:28.796Z,97082.56
2023-02-01T21:17:34.553Z,97077.09
2023-02-01T21:19:45.491Z,97084.41
2023-02-01T21:21:50.382Z,97075.94
2023-02-01T21:23:55.173Z,97071.44
2023-02-01T21:26:03.959Z,97072.97
2023-02-01T21:28:08.815Z,97068.53
2023-02-01T21:30:14.994Z,97065.06
2023-02-01T21:32:22.397Z,97075.31
2023-02-01T21:34:27.086Z,97067.44
2023-02-01T21:36:37.763Z,97071.59
2023-02-01T21:38:42.710Z,97069.19
2023-02-01T21:41:07.601Z,97070.81
2023-02-01T21:43:09.656Z,97088.13
2023-02-01T21:45:15.002Z,97083.69
2023-02-01T21:47:26.099Z,97084.47
2023-02-01T21:49:31.495Z,97090.75
2023-02-01T21:51:38.400Z,97089.41
2023-02-01T21:53:44.477Z,97074.13
2023-02-01T21:55:49.219Z,97080.47
2023-02-01T21:57:53.966Z,97074.63
2023-02-01T21:59:59.033Z,97075.69
2023-02-01T22:02:04.870Z,97081.97
2023-02-01T22:04:13.521Z,97089.88
2023-02-01T22:06:25.560Z,97092.50
2023-02-01T22:08:30.216Z,97099.63
2023-02-01T22:10:35.036Z,97089.41
2023-02-01T22:12:39.770Z,97077.38
2023-02-01T22:14:46.486Z,97099.97
2023-02-01T22:16:52.122Z,97070.84
2023-02-01T22:18:57.562Z,97082.69
2023-02-01T22:21:05.559Z,97085.31
2023-02-01T22:23:10.325Z,97088.22
2023-02-01T22:25:15.032Z,97079.56
2023-02-01T22:27:19.844Z,97081.94
2023-02-01T22:29:26.960Z,97074.06
2023-02-01T22:31:32.041Z,97082.19
2023-02-01T22:33:37.218Z,97083.22
2023-02-01T22:35:41.985Z,97068.03
2023-02-01T22:37:49.323Z,97081.16
2023-02-01T22:39:57.017Z,97079.59
2023-02-01T22:42:01.755Z,97079.38
2023-02-01T22:44:06.717Z,97076.25
2023-02-01T22:46:14.897Z,97076.00
2023-02-01T22:48:19.816Z,97074.16
2023-02-01T22:50:24.709Z,97071.78
2023-02-01T22:52:29.492Z,97066.78
2023-02-01T22:54:37.256Z,97076.00
2023-02-01T22:56:42.004Z,97074.94
2023-02-01T22:58:46.731Z,97066.28
2023-02-01T23:00:51.444Z,97090.69
2023-02-01T23:02:56.530Z,97081.00
2023-02-01T23:05:01.258Z,97094.19
2023-02-01T23:07:05.937Z,97091.88
2023-02-01T23:09:16.386Z,97090.06
2023-02-01T23:11:23.627Z,97106.38
2023-02-01T23:13:28.447Z,97093.78
2023-02-01T23:15:33.326Z,97093.78
2023-02-01T23:17:39.477Z,97108.50
2023-02-01T23:19:44.153Z,97101.97
2023-02-01T23:21:48.981Z,97114.31
2023-02-01T23:23:55.450Z,97086.13
2023-02-01T23:26:00.568Z,97095.09
2023-02-01T23:28:08.104Z,97110.84
2023-02-01T23:30:16.614Z,97107.16
2023-02-01T23:32:21.509Z,97107.47
2023-02-01T23:34:26.419Z,97091.97
2023-02-01T23:36:33.175Z,97097.81
2023-02-01T23:38:38.817Z,97097.00
2023-02-01T23:40:43.528Z,97102.00
2023-02-01T23:43:08.473Z,97090.75
2023-02-01T23:45:13.652Z,97097.81
2023-02-01T23:47:18.332Z,97086.28
2023-02-01T23:49:22.997Z,97110.97
2023-02-01T23:51:28.390Z,97101.28
2023-02-01T23:53:33.324Z,97108.34
2023-02-01T23:55:38.075Z,97097.81
2023-02-01T23:57:42.767Z,97098.91
2023-02-01T23:59:48.670Z,97104.69
